Latest Weather Observations for Low Rocky Point

IDT60801

Issued at 4:02 pm EST Tuesday 26 July 2016 (issued every 30 minutes, with the page automatically refreshed every 10 minutes)

About weather observations | Map of weather stations | Latest weather observations for TAS | Other Formats
Station Details ID: 097080 Name: LOW ROCKY POINT Lat: -42.98 Lon: 145.50 Height: 34.0 m
Data from the previous 72 hours. | See also: Recent months at Low Rocky Point
Date/Time
EST
Temp
°C
App
Temp
°C
Dew
Point
°C
Rel
Hum
%
Delta-T
°C
Wind Press
QNH
hPa
Press
MSL
hPa
Rain since
9am
mm
Dir  Spd
km/h
Gust
km/h
Spd
kts
Gust
kts
26/04:00pm 7.5 -1.8 5.1 85 1.1 NW 43 59 23 32 998.3 998.3 6.4
26/03:56pm 8.4 0.1 5.9 84 1.1 NW 39 57 21 31 998.2 998.2 6.4
26/03:30pm 8.0 -3.4 5.1 82 1.3 NW 54 65 29 35 998.3 998.3 6.4
26/03:00pm 8.4 -2.4 6.0 85 1.1 NW 52 63 28 34 998.0 998.1 6.4
26/02:30pm 7.9 -0.7 6.4 90 0.7 WNW 41 61 22 33 998.4 998.4 6.4
26/02:25pm 7.5 -1.6 5.8 89 0.8 WNW 43 61 23 33 998.6 998.6 6.4
26/02:00pm 8.0 -2.7 6.6 91 0.7 WNW 52 65 28 35 998.3 998.4 6.4
26/01:52pm 7.5 -2.0 6.6 94 0.4 WNW 46 65 25 35 998.3 998.3 6.4
26/01:30pm 7.0 -2.0 6.6 97 0.2 WNW 43 50 23 27 998.7 998.7 6.4
26/01:06pm 6.7 -4.1 5.8 94 0.4 WNW 52 83 28 45 998.6 998.6 4.8
26/01:00pm 7.6 -1.3 6.9 95 0.3 WNW 43 57 23 31 998.5 998.6 4.6
26/12:38pm 6.7 -4.2 5.5 92 0.5 WNW 52 82 28 44 998.7 998.7 3.0
26/12:30pm 6.7 -4.2 5.5 92 0.5 W 52 65 28 35 998.9 999.0 2.4
26/12:19pm 7.4 -3.6 5.2 86 1.0 WNW 52 74 28 40 999.1 999.2 1.4
26/12:00pm 7.9 -2.2 5.9 87 0.9 WNW 48 59 26 32 998.9 999.0 1.2
26/11:30am 7.4 -3.0 6.0 91 0.6 W 50 65 27 35 999.1 999.2 1.2
26/11:10am 6.9 -5.4 5.2 89 0.8 WNW 59 87 32 47 999.0 999.1 1.2
26/11:05am 6.7 -5.7 4.7 87 0.9 WNW 59 87 32 47 999.0 999.1 1.0
26/11:03am 7.5 -4.4 5.3 86 1.0 WNW 57 83 31 45 998.7 998.7 0.8
26/11:01am 7.9 -3.0 5.5 85 1.1 W 52 72 28 39 998.9 999.0 0.8
26/11:00am 7.9 -2.6 5.5 85 1.1 W 50 65 27 35 998.9 999.0 0.8
26/10:33am 7.3 -4.5 5.0 85 1.0 WNW 56 74 30 40 998.7 998.7 0.8
26/10:30am 7.3 -4.7 5.0 85 1.0 WNW 57 74 31 40 998.6 998.6 0.6
26/10:00am 7.3 -4.7 4.8 84 1.1 W 57 82 31 44 998.3 998.4 0.4
26/09:30am 7.1 -5.0 4.2 82 1.3 W 57 78 31 42 998.3 998.3 0.2
26/09:15am 8.0 -4.6 3.5 73 1.9 W 59 82 32 44 998.3 998.3 0.0
26/09:00am 8.4 -4.2 3.8 73 2.0 W 59 72 32 39 997.9 998.0 11.0
26/08:57am 8.5 -4.0 4.3 75 1.8 W 59 78 32 42 997.9 997.9 11.0
26/08:30am 7.8 -6.2 4.4 79 1.5 WNW 67 80 36 43 997.4 997.4 11.0
26/08:00am 6.8 -6.2 3.4 79 1.4 W 61 83 33 45 997.3 997.4 11.0
26/07:33am 8.1 -5.6 3.6 73 1.9 WNW 65 83 35 45 996.8 996.8 11.0
26/07:30am 8.0 -6.1 3.5 73 1.9 WNW 67 83 36 45 996.7 996.7 11.0
26/07:00am 7.3 -4.9 3.7 78 1.6 W 57 80 31 43 996.2 996.3 11.0
26/06:30am 8.3 -6.4 2.5 67 2.4 W 69 95 37 51 995.2 995.2 11.0
26/06:00am 8.5 -5.3 3.1 69 2.3 W 65 85 35 46 994.7 994.8 11.0
26/05:30am 7.9 -5.8 3.8 75 1.8 WNW 65 87 35 47 993.9 993.9 11.0
26/05:11am 7.8 -4.1 4.4 79 1.5 W 56 76 30 41 994.0 994.0 11.0
26/05:05am 6.7 -7.5 3.3 79 1.4 W 67 96 36 52 993.9 993.9 11.0
26/05:00am 6.5 -9.1 2.9 78 1.5 W 74 98 40 53 993.8 993.9 11.0
26/04:30am 7.5 -8.3 3.7 77 1.6 W 76 102 41 55 992.5 992.5 10.8
26/04:22am 7.5 -7.6 3.6 76 1.7 W 72 96 39 52 992.6 992.6 10.8
26/04:19am 8.3 -6.3 4.1 75 1.8 W 70 95 38 51 992.2 992.2 10.8
26/04:05am 7.3 -5.2 4.3 81 1.3 W 59 78 32 42 992.2 992.2 10.8
26/04:00am 6.6 -6.4 3.6 81 1.3 W 61 72 33 39 992.3 992.4 10.8
26/03:54am 6.0 -8.6 3.2 82 1.2 W 69 98 37 53 992.4 992.4 10.8
26/03:48am 6.4 -8.3 3.4 81 1.3 W 70 98 38 53 992.5 992.5 10.6
26/03:47am 6.4 -8.2 2.9 78 1.5 W 69 98 37 53 992.2 992.2 10.6
26/03:44am 8.1 -5.5 4.3 77 1.7 WNW 65 83 35 45 991.9 991.9 10.6
26/03:30am 7.8 -6.9 3.7 75 1.8 WNW 70 85 38 46 991.6 991.6 10.6
26/03:00am 6.4 -8.7 3.6 82 1.2 W 72 96 39 52 991.6 991.6 10.6
26/02:34am 7.3 -7.4 3.7 78 1.5 W 70 89 38 48 991.3 991.3 10.4
26/02:30am 6.7 -8.9 2.8 76 1.6 W 74 89 40 48 991.2 991.2 10.4
26/02:00am 8.0 -6.7 3.7 74 1.9 W 70 89 38 48 990.1 990.1 10.4
26/01:48am 7.6 -7.4 4.0 78 1.6 W 72 91 39 49 990.5 990.5 10.4
26/01:30am 8.0 -8.2 3.5 73 1.9 W 78 91 42 49 989.8 989.8 10.4
26/01:00am 8.4 -7.8 3.7 72 2.1 W 78 98 42 53 989.2 989.2 10.4
26/12:35am 9.0 -6.7 4.4 73 2.0 W 76 96 41 52 988.8 988.8 10.4
26/12:30am 8.7 -6.2 4.5 75 1.9 WNW 72 93 39 50 988.8 988.8 10.4
26/12:26am 8.5 -5.8 4.5 76 1.8 WNW 69 93 37 50 988.6 988.6 10.4
26/12:00am 8.1 -5.2 3.9 75 1.8 W 63 83 34 45 988.8 988.8 10.4
 
Date/Time
EST
Temp
°C
App
Temp
°C
Dew
Point
°C
Rel
Hum
%
Delta-T
°C
Wind Press
QNH
hPa
Press
MSL
hPa
Rain since
9am
mm
Dir  Spd
km/h
Gust
km/h
Spd
kts
Gust
kts
25/11:53pm 7.6 -8.1 4.4 80 1.4 W 76 104 41 56 988.9 988.9 10.4
25/11:49pm 7.5 -9.0 4.3 80 1.4 W 80 104 43 56 988.9 988.9 10.4
25/11:46pm 7.5 -8.7 3.9 78 1.5 W 78 104 42 56 988.7 988.7 10.4
25/11:30pm 7.9 -6.4 5.7 86 1.0 WNW 70 96 38 52 988.5 988.5 10.2
25/11:02pm 8.7 -4.2 5.8 82 1.3 WNW 63 82 34 44 987.9 987.9 9.8
25/11:00pm 8.7 -4.2 6.0 83 1.3 WNW 63 74 34 40 988.1 988.1 9.8
25/10:41pm 7.7 -7.1 5.0 83 1.2 WNW 72 96 39 52 987.9 987.9 9.8
25/10:38pm 8.7 -5.5 5.1 78 1.6 WNW 69 96 37 52 987.7 987.7 9.8
25/10:36pm 9.1 -4.3 5.5 78 1.6 WNW 65 85 35 46 987.8 987.8 9.8
25/10:30pm 9.0 -4.3 5.6 79 1.5 WNW 65 80 35 43 988.0 988.0 9.8
25/10:09pm 7.4 -4.0 4.9 84 1.1 W 54 72 29 39 988.3 988.3 9.8
25/10:00pm 7.4 -7.8 5.0 85 1.1 WNW 74 102 40 55 988.1 988.1 9.8
25/09:53pm 7.1 -6.5 4.1 81 1.3 WNW 65 102 35 55 987.9 987.9 9.8
25/09:51pm 7.9 -4.9 4.5 79 1.5 WNW 61 102 33 55 987.5 987.5 9.8
25/09:50pm 8.9 -2.9 5.5 79 1.5 WNW 57 95 31 51 987.5 987.5 9.8
25/09:48pm 9.1 -2.5 6.0 81 1.4 WNW 56 72 30 39 987.6 987.6 9.6
25/09:45pm 9.0 -2.7 6.1 82 1.3 WNW 57 70 31 38 987.7 987.7 9.6
25/09:30pm 7.4 -7.2 4.0 79 1.5 WNW 70 93 38 50 987.7 987.7 9.6
25/09:03pm 9.5 -3.8 5.7 77 1.7 WNW 65 83 35 45 987.4 987.4 9.6
25/09:00pm 9.7 -4.3 6.2 79 1.6 WNW 69 83 37 45 987.5 987.5 9.6
25/08:30pm 9.4 -2.9 7.0 85 1.1 WNW 61 80 33 43 986.9 986.9 9.6
25/08:27pm 9.2 -2.6 7.3 88 0.9 WNW 59 78 32 42 987.1 987.1 9.6
25/08:18pm 8.8 -2.2 6.9 88 0.9 WNW 54 78 29 42 986.7 986.7 9.6
25/08:15pm 8.2 -2.1 6.5 89 0.8 WNW 50 70 27 38 986.9 986.9 9.6
25/08:08pm 7.4 -5.4 6.2 92 0.5 WNW 63 83 34 45 987.6 987.6 9.6
25/08:00pm 7.8 -6.3 6.4 91 0.6 WNW 70 93 38 50 987.2 987.2 9.4
25/07:38pm 8.0 -2.9 7.2 95 0.4 WNW 54 87 29 47 986.7 986.7 9.2
25/07:32pm 7.9 -0.8 7.5 97 0.2 W 43 65 23 35 986.8 986.8 9.2
25/07:30pm 7.6 -0.5 7.2 97 0.2 W 39 50 21 27 986.9 986.9 9.0
25/07:21pm 7.0 -1.1 6.9 99 0.0 W 39 52 21 28 986.8 986.8 9.0
25/07:11pm 6.3 -4.5 6.0 98 0.1 NW 52 102 28 55 987.0 987.0 8.4
25/07:09pm 6.5 -3.9 6.2 98 0.1 NNW 50 102 27 55 986.2 986.2 8.2
25/07:00pm 6.1 -2.3 5.7 97 0.2 N 39 70 21 38 986.3 986.3 6.6
25/06:30pm 6.5 -3.2 5.6 94 0.4 N 46 69 25 37 986.3 986.3 4.0
25/06:00pm 7.9 -0.9 5.7 86 1.0 N 41 61 22 33 986.5 986.5 0.8
25/05:43pm 8.9 1.8 5.6 80 1.5 N 32 54 17 29 986.5 986.5 0.2
25/05:30pm 8.5 2.5 5.4 81 1.4 N 26 39 14 21 986.8 986.8 0.2
25/05:00pm 8.8 1.7 5.7 81 1.4 N 32 44 17 24 988.0 988.0 0.2
25/04:30pm 8.9 2.6 5.5 79 1.5 N 28 43 15 23 989.0 989.0 0.2
25/04:00pm 9.6 4.0 5.6 76 1.8 N 24 35 13 19 990.1 990.1 0.2
25/03:30pm 10.3 4.0 5.9 74 2.0 N 28 41 15 22 991.3 991.3 0.2
25/03:00pm 10.5 4.3 6.1 74 2.1 N 28 39 15 21 992.0 992.0 0.2
25/02:39pm 10.9 4.0 6.6 75 2.0 NNW 32 50 17 27 992.6 992.6 0.2
25/02:30pm 10.7 2.0 6.1 73 2.1 NNW 41 50 22 27 992.7 992.7 0.2
25/02:00pm 10.4 0.2 5.4 71 2.3 NW 48 61 26 33 993.7 993.8 0.2
25/01:30pm 10.9 2.8 7.2 78 1.8 NW 39 50 21 27 994.6 994.6 0.2
25/01:00pm 10.4 1.4 7.1 80 1.6 NW 44 54 24 29 995.2 995.3 0.2
25/12:30pm 10.3 2.8 7.9 85 1.2 NW 37 44 20 24 995.8 995.8 0.2
25/12:00pm 10.0 3.6 8.6 91 0.7 WNW 32 41 17 22 996.7 996.8 0.2
25/11:30am 8.9 0.3 8.0 94 0.4 WNW 43 50 23 27 997.2 997.2 0.2
25/11:00am 9.9 4.3 8.7 92 0.6 WNW 28 35 15 19 997.5 997.6 0.2
25/10:30am 9.3 3.7 8.8 97 0.2 WNW 28 35 15 19 997.8 997.8 0.2
25/10:00am 9.1 3.9 9.0 99 0.0 WNW 26 32 14 17 997.9 998.0 0.2
25/09:30am 8.9 3.3 8.8 99 0.0 W 28 32 15 17 997.9 997.9 0.0
25/09:00am 8.6 2.9 8.5 99 0.0 WNW 28 35 15 19 997.8 997.9 15.8
25/08:30am 7.6 3.4 7.5 99 0.0 N 19 24 10 13 997.7 997.7 15.2
25/08:00am 7.6 3.4 7.5 99 0.0 N 19 24 10 13 998.0 998.1 15.2
25/07:30am 7.7 4.3 7.6 99 0.0 N 15 22 8 12 998.0 998.0 15.2
25/07:00am 8.4 3.5 8.3 99 0.0 NW 24 30 13 16 997.9 998.0 14.8
25/06:30am 7.7 1.8 7.6 99 0.0 NNW 28 39 15 21 998.2 998.2 14.4
25/06:00am 7.0 1.7 6.9 99 0.0 N 24 32 13 17 997.4 997.5 12.8
25/05:30am 6.8 1.9 6.7 99 0.0 N 22 32 12 17 997.7 997.7 12.8
25/05:00am 6.9 2.4 6.8 99 0.0 N 20 30 11 16 997.8 997.9 12.8
25/04:30am 6.9 3.3 6.8 99 0.0 N 15 22 8 12 997.8 997.8 12.4
25/04:00am 7.3 3.4 7.2 99 0.0 N 17 24 9 13 998.0 998.1 12.2
25/03:30am 7.3 2.5 7.2 99 0.0 N 22 28 12 15 998.2 998.2 11.2
25/03:00am 6.9 1.6 6.8 99 0.0 N 24 32 13 17 998.1 998.2 8.8
25/02:30am 6.0 0.9 5.9 99 0.0 N 22 30 12 16 998.3 998.3 8.6
25/02:00am 6.1 1.0 6.0 99 0.0 N 22 30 12 16 998.5 998.6 8.6
25/01:30am 5.9 0.8 5.8 99 0.0 N 22 28 12 15 998.5 998.5 8.6
25/01:00am 6.4 1.8 6.3 99 0.0 N 20 28 11 15 998.6 998.7 8.6
25/12:30am 6.3 0.5 6.2 99 0.0 N 26 35 14 19 998.8 998.8 8.6
25/12:00am 6.5 1.1 6.4 99 0.0 N 24 35 13 19 999.2 999.3 8.6
 
Date/Time
EST
Temp
°C
App
Temp
°C
Dew
Point
°C
Rel
Hum
%
Delta-T
°C
Wind Press
QNH
hPa
Press
MSL
hPa
Rain since
9am
mm
Dir  Spd
km/h
Gust
km/h
Spd
kts
Gust
kts
24/11:30pm 6.0 1.5 5.9 99 0.0 N 19 28 10 15 999.3 999.4 8.6
24/11:00pm 6.2 0.7 6.1 99 0.0 N 24 32 13 17 999.5 999.6 8.6
24/10:30pm 6.2 0.7 6.1 99 0.0 N 24 32 13 17 999.8 999.9 8.6
24/10:00pm 5.6 0.4 5.5 99 0.0 N 22 28 12 15 1000.0 1000.1 8.4
24/09:30pm 5.1 -0.2 5.0 99 0.0 NNE 22 30 12 16 1000.1 1000.2 8.4
24/09:00pm 5.5 0.3 5.4 99 0.0 NNE 22 28 12 15 1000.4 1000.5 8.4
24/08:30pm 5.7 1.5 5.6 99 0.0 NNE 17 24 9 13 1000.7 1000.8 8.4
24/08:00pm 6.1 2.3 6.0 99 0.0 N 15 20 8 11 1000.9 1001.0 8.0
24/07:30pm 5.5 0.7 5.4 99 0.0 NNE 20 26 11 14 1000.7 1000.8 7.8
24/07:00pm 5.8 1.6 5.7 99 0.0 N 17 20 9 11 1000.9 1001.0 7.8
24/06:30pm 6.3 3.3 6.2 99 0.0 NNE 11 19 6 10 1001.2 1001.3 7.6
24/06:00pm 6.4 1.4 6.3 99 0.0 N 22 32 12 17 1001.3 1001.4 6.8
24/05:30pm 5.9 1.3 5.6 98 0.1 N 19 24 10 13 1001.0 1001.1 6.0
24/05:00pm 6.4 1.9 6.0 97 0.2 N 19 24 10 13 1001.2 1001.3 5.8
24/04:30pm 6.7 3.4 6.3 97 0.2 NNE 13 19 7 10 1001.4 1001.5 5.8
24/04:00pm 7.1 1.8 6.7 97 0.2 NNW 24 32 13 17 1001.5 1001.6 5.8
24/03:30pm 7.6 2.3 6.9 95 0.3 N 24 35 13 19 1001.4 1001.5 5.6
24/03:00pm 8.3 4.6 8.0 98 0.1 WNW 17 30 9 16 1001.6 1001.7 5.4
24/02:30pm 6.8 2.4 6.4 97 0.2 N 19 24 10 13 1001.7 1001.8 5.2
24/02:00pm 7.5 3.0 6.9 96 0.3 N 20 28 11 15 1002.0 1002.1 3.4
24/01:30pm 7.1 2.7 6.4 95 0.3 N 19 26 10 14 1002.3 1002.4 3.4
24/01:00pm 6.9 1.8 5.8 93 0.5 NNW 22 33 12 18 1002.6 1002.7 3.4
24/12:30pm 8.0 3.5 6.3 89 0.8 N 19 26 10 14 1002.8 1002.9 1.8
24/12:00pm 8.9 4.2 7.7 92 0.6 NNW 22 35 12 19 1003.2 1003.3 1.8
24/11:30am 7.2 3.2 6.5 95 0.3 N 17 30 9 16 1003.8 1003.9 1.8
24/11:00am 6.6 2.4 5.9 95 0.3 N 17 26 9 14 1004.2 1004.3 1.8
24/10:30am 6.5 2.2 5.3 92 0.5 NNE 17 20 9 11 1004.3 1004.4 1.8
24/10:00am 8.0 3.5 6.0 87 0.9 N 19 26 10 14 1004.3 1004.4 0.0
24/09:30am 7.8 2.9 5.1 83 1.2 NNW 20 28 11 15 1004.4 1004.5 0.0
24/09:00am 8.2 1.4 5.0 80 1.4 NW 30 44 16 24 1004.5 1004.6 3.4
24/08:30am 7.3 1.8 4.1 80 1.4 WNW 22 30 12 16 1004.5 1004.6 3.4
24/08:00am 6.8 -0.9 3.6 80 1.4 WNW 33 43 18 23 1004.7 1004.8 3.2
24/07:39am 8.4 0.7 3.5 71 2.1 WNW 33 52 18 28 1004.4 1004.5 3.2
24/07:30am 8.2 1.0 3.1 70 2.2 WNW 30 39 16 21 1004.4 1004.5 3.2
24/07:00am 8.2 0.1 3.3 71 2.1 WNW 35 43 19 23 1004.2 1004.3 3.2
24/06:30am 8.3 0.2 3.4 71 2.1 WNW 35 43 19 23 1004.0 1004.1 3.2
24/06:00am 7.9 -0.6 3.0 71 2.1 W 37 43 20 23 1004.0 1004.1 3.2
24/05:30am 7.8 -0.1 4.2 78 1.6 W 35 48 19 26 1003.9 1004.0 3.2
24/05:07am 7.5 -0.3 4.8 83 1.2 W 35 54 19 29 1003.9 1004.0 3.0
24/05:00am 7.1 -0.8 4.2 82 1.3 W 35 44 19 24 1004.0 1004.1 3.0
24/04:30am 7.6 0.1 4.4 80 1.4 W 33 43 18 23 1004.0 1004.1 3.0
24/04:00am 7.2 0.2 4.3 82 1.3 WSW 30 41 16 22 1004.2 1004.3 3.0
24/03:34am 7.0 -0.3 4.7 85 1.0 W 32 52 17 28 1004.2 1004.3 3.0
24/03:30am 6.5 -0.5 4.2 85 1.0 WSW 30 41 16 22 1004.3 1004.4 3.0
24/03:14am 7.4 0.0 4.2 80 1.4 W 32 52 17 28 1004.4 1004.5 2.8
24/03:00am 7.6 -0.2 4.7 82 1.3 WNW 35 44 19 24 1004.3 1004.4 2.8
24/02:30am 6.7 -1.2 4.5 86 1.0 WNW 35 44 19 24 1004.6 1004.7 2.8
24/02:00am 7.2 -2.2 4.3 82 1.3 W 43 52 23 28 1004.6 1004.7 2.8
24/01:30am 6.4 -2.6 4.4 87 0.9 W 41 54 22 29 1004.6 1004.7 2.8
24/01:18am 6.9 -2.1 4.4 84 1.1 W 41 61 22 33 1004.5 1004.6 2.8
24/01:00am 6.4 -2.4 3.6 82 1.2 W 39 48 21 26 1004.5 1004.6 2.8
24/12:36am 5.7 -6.1 2.7 81 1.2 WNW 54 72 29 39 1005.0 1005.1 2.4
24/12:30am 6.1 -7.0 2.7 79 1.4 WNW 61 72 33 39 1004.8 1004.9 2.2
24/12:19am 7.0 -5.1 3.3 77 1.6 WNW 56 76 30 41 1004.5 1004.6 2.2
24/12:00am 7.2 -2.0 3.4 77 1.6 WNW 41 61 22 33 1004.2 1004.3 2.2
 
Date/Time
EST
Temp
°C
App
Temp
°C
Dew
Point
°C
Rel
Hum
%
Delta-T
°C
Wind Press
QNH
hPa
Press
MSL
hPa
Rain since
9am
mm
Dir  Spd
km/h
Gust
km/h
Spd
kts
Gust
kts
23/11:37pm 7.7 -1.2 3.0 72 2.0 WNW 39 57 21 31 1004.4 1004.5 2.0
23/11:30pm 7.6 -0.3 2.5 70 2.1 W 33 43 18 23 1004.5 1004.6 2.0
23/11:00pm 8.1 -0.4 1.0 61 2.9 W 35 46 19 25 1004.4 1004.5 2.0
23/10:30pm 7.6 -1.0 0.1 59 2.9 W 35 46 19 25 1004.4 1004.5 2.0
23/10:00pm 5.9 -0.8 1.2 72 1.9 WSW 26 52 14 28 1004.4 1004.5 2.0
23/09:51pm 7.6 -0.1 -0.1 58 3.0 WSW 30 52 16 28 1004.3 1004.4 1.8
23/09:30pm 8.1 0.1 0.6 59 3.0 WSW 32 46 17 25 1004.0 1004.1 1.8
23/09:00pm 6.6 0.1 0.1 63 2.5 SW 24 37 13 20 1003.9 1004.0 1.8
23/08:30pm 7.0 -1.7 -0.7 58 2.9 SW 35 59 19 32 1003.5 1003.6 1.8
23/08:00pm 7.7 -1.1 -1.3 53 3.4 WSW 35 54 19 29 1002.9 1003.0 1.8
23/07:53pm 7.6 -1.2 -1.4 53 3.4 SW 35 54 19 29 1002.8 1002.9 1.8
23/07:30pm 7.2 -0.9 1.1 65 2.4 SW 33 46 18 25 1002.7 1002.8 1.8
23/07:08pm 7.2 -2.6 -0.3 59 2.9 SW 41 59 22 32 1002.4 1002.5 1.8
23/07:00pm 7.4 -2.3 0.4 61 2.8 SW 41 57 22 31 1002.3 1002.4 1.8
23/06:35pm 6.6 -0.6 0.5 65 2.4 WSW 28 46 15 25 1001.8 1001.9 1.8
23/06:30pm 6.3 -0.2 0.2 65 2.4 SW 24 44 13 24 1001.7 1001.8 1.8
23/06:29pm 6.1 -0.8 0.0 65 2.4 SW 26 52 14 28 1001.7 1001.8 1.8
23/06:20pm 5.6 -6.5 -2.0 58 2.8 SW 52 85 28 46 1001.9 1002.0 1.8
23/06:16pm 6.6 -5.9 -1.5 56 3.0 SW 54 85 29 46 1001.4 1001.5 1.8
23/06:00pm 7.4 -2.8 -0.3 58 3.0 SW 43 63 23 34 1000.7 1000.8 1.8
23/05:56pm 7.3 -2.9 -0.6 57 3.0 SW 43 61 23 33 1000.6 1000.7 1.8
23/05:30pm 7.3 -2.7 2.0 69 2.2 WSW 44 65 24 35 999.9 1000.0 1.8
23/05:08pm 7.4 -2.0 2.3 70 2.1 SW 41 59 22 32 999.3 999.4 1.8
23/05:00pm 7.2 -2.5 2.7 73 1.9 SW 43 57 23 31 999.1 999.2 1.8
23/04:30pm 6.2 -3.1 2.7 78 1.4 SW 41 61 22 33 998.8 998.8 1.8

Other Formats:

Comma delimited format used in spreadsheet applications
http://www.bom.gov.au/fwo/IDT60801/IDT60801.95961.axf

JavaScript Object Notation format (JSON) in row-major order
http://www.bom.gov.au/fwo/IDT60801/IDT60801.95961.json